Copahue, Argentina
Current Conditions -  °F | °C
As of 10:00 PM on Friday 24 Oct 2014 (Local Time) from SACO Reporting Station
Clear Clear  
Wind Chill: 75°   Ceiling: Unl
Heat Index: 75°   Visibility: 6mi
Dew Point: 57°   Wind: 7mph
Humidity: 53%   Direction: 340°NNW
Pressure: 30"   Gusts: NA
Location:  31.35°S, 66.17°W
Report Text: SACO 250100Z 34006KT CAVOK 24/14 Q1016
Loading
Personal Weather Stations






























Interactive Weather Map
Tropical Storm Tracking
New forecast layout! Learn more

10-Day Weather Forecast

Advertisements
Track Severe Weather on mobile